Time;durP1;ratioP1;P1;durP2;ratioP2;P2;SDS_P1;SDS_P2;PMS_P1;PMS_P2;Temp;Humidity;BMP_temperature;BMP_pressure;BME280_temperature;BME280_humidity;BME280_pressure;Samples;Min_cycle;Max_cycle;Signal;HPM_P1;HPM_P2
2023/05/16 00:01:07;;;;;;;8.38;2.88;;;9.40;99.90;;;;;;4983813;28;89287;-34
2023/05/16 00:03:33;;;;;;;11.65;3.85;;;9.40;99.90;;;;;;4984049;28;90061;-35
2023/05/16 00:06:01;;;;;;;13.77;4.88;;;9.30;99.90;;;;;;4984145;28;89771;-31
2023/05/16 00:08:27;;;;;;;8.63;3.85;;;9.20;99.90;;;;;;4993318;28;89963;-31
2023/05/16 00:10:53;;;;;;;6.38;3.35;;;9.30;99.90;;;;;;4985332;28;89797;-35
2023/05/16 00:13:25;;;;;;;9.27;3.95;;;9.30;99.90;;;;;;4982988;28;89712;-34
2023/05/16 00:15:52;;;;;;;8.15;3.95;;;9.20;99.90;;;;;;4985658;28;90696;-29
2023/05/16 00:18:18;;;;;;;4.57;2.97;;;9.10;99.90;;;;;;4982223;28;91844;-31
2023/05/16 00:20:44;;;;;;;7.85;4.05;;;9.10;99.90;;;;;;4995838;28;89711;-32
2023/05/16 00:23:10;;;;;;;8.23;4.35;;;9.00;99.90;;;;;;4999549;28;89435;-30
2023/05/16 00:25:36;;;;;;;10.40;4.00;;;9.00;99.90;;;;;;4998926;28;89099;-33
2023/05/16 00:28:02;;;;;;;7.20;3.25;;;9.00;99.90;;;;;;4998815;28;89999;-32
2023/05/16 00:30:27;;;;;;;3.08;2.13;;;8.90;99.90;;;;;;4997728;28;91046;-33
2023/05/16 00:32:54;;;;;;;13.85;5.25;;;8.90;99.90;;;;;;4999568;28;89483;-33
2023/05/16 00:35:19;;;;;;;10.30;4.55;;;8.90;99.90;;;;;;4986690;28;88952;-30
2023/05/16 00:37:45;;;;;;;8.05;2.63;;;8.80;99.90;;;;;;4979372;28;89188;-30
2023/05/16 00:40:11;;;;;;;5.80;3.40;;;8.80;99.90;;;;;;4980541;28;91521;-35
2023/05/16 00:42:37;;;;;;;7.25;2.85;;;8.80;99.90;;;;;;4979396;28;91042;-34
2023/05/16 00:45:04;;;;;;;7.25;3.80;;;8.80;99.90;;;;;;4980129;28;89099;-36
2023/05/16 00:47:29;;;;;;;8.02;3.35;;;8.70;99.90;;;;;;4985809;28;90227;-32
2023/05/16 00:49:55;;;;;;;15.93;3.72;;;8.70;99.90;;;;;;4998393;28;90539;-33
2023/05/16 00:52:21;;;;;;;5.00;2.90;;;8.60;99.90;;;;;;4992470;28;89689;-35
2023/05/16 00:54:47;;;;;;;7.65;4.30;;;8.60;99.90;;;;;;4979841;28;90015;-32
2023/05/16 00:57:13;;;;;;;6.38;3.22;;;8.60;99.90;;;;;;4978235;28;89979;-36
2023/05/16 00:59:39;;;;;;;11.73;4.18;;;8.60;99.90;;;;;;4979475;28;90120;-31
2023/05/16 01:02:05;;;;;;;5.82;3.50;;;8.50;99.90;;;;;;4984981;28;89521;-33
2023/05/16 01:04:31;;;;;;;13.05;3.35;;;8.50;99.90;;;;;;4998321;28;88984;-31
2023/05/16 01:06:57;;;;;;;7.22;2.30;;;8.40;99.90;;;;;;4992438;28;89949;-32
2023/05/16 01:09:23;;;;;;;14.25;3.63;;;8.40;99.90;;;;;;4978985;28;89643;-30
2023/05/16 01:11:51;;;;;;;4.30;2.88;;;8.40;99.90;;;;;;4998868;28;89809;-33
2023/05/16 01:14:54;;;;;;;4.65;2.60;;;8.40;99.90;;;;;;4986458;28;89464;-33
2023/05/16 01:17:28;;;;;;;9.45;3.47;;;8.40;99.90;;;;;;4979459;28;90146;-31
2023/05/16 01:20:14;;;;;;;5.40;3.35;;;8.40;99.90;;;;;;4986468;28;89681;-31
2023/05/16 01:22:59;;;;;;;9.27;3.03;;;8.40;99.90;;;;;;4998526;28;89512;-31
2023/05/16 01:25:52;;;;;;;6.43;2.88;;;8.30;99.90;;;;;;4986974;28;89541;-32
2023/05/16 01:28:18;;;;;;;7.68;3.05;;;8.30;99.90;;;;;;4987892;28;89797;-32
2023/05/16 01:30:44;;;;;;;14.50;4.20;;;8.20;99.90;;;;;;4996587;28;91209;-30
2023/05/16 01:33:10;;;;;;;3.97;2.33;;;;;;;;;;4998305;28;91499;-33
2023/05/16 01:35:41;;;;;;;7.15;3.78;;;;;;;;;;4985219;28;87935;-33
2023/05/16 01:38:16;;;;;;;6.63;3.05;;;;;;;;;;4989085;28;89121;-33
2023/05/16 01:40:57;;;;;;;15.18;2.78;;;;;;;;;;4991481;28;88838;-31
2023/05/16 01:43:30;;;;;;;4.13;3.05;;;;;;;;;;4993394;28;89145;-31
2023/05/16 01:45:59;;;;;;;6.35;2.13;;;;;;;;;;4999274;28;87560;-34
2023/05/16 01:48:30;;;;;;;4.03;2.10;;;;;;;;;;4996111;28;91616;-36
2023/05/16 01:50:57;;;;;;;8.45;4.15;;;;;;;;;;4985283;28;91031;-36
2023/05/16 01:53:28;;;;;;;13.63;2.58;;;;;;;;;;4995344;28;90447;-32
2023/05/16 01:55:56;;;;;;;5.47;2.50;;;;;;;;;;4996480;28;89043;-31
2023/05/16 01:58:23;;;;;;;7.72;3.88;;;;;;;;;;4996984;28;89576;-31
2023/05/16 02:00:49;;;;;;;12.13;3.22;;;;;;;;;;4999711;28;89873;-32
2023/05/16 02:03:15;;;;;;;10.25;3.05;;;;;;;;;;4999002;28;89292;-32
2023/05/16 02:05:41;;;;;;;8.75;2.35;;;;;;;;;;5001938;28;89623;-33
2023/05/16 02:08:09;;;;;;;11.45;3.35;;;;;;;;;;4995573;28;90453;-31
2023/05/16 02:10:35;;;;;;;8.55;2.28;;;;;;;;;;4999821;28;90742;-31
2023/05/16 02:13:00;;;;;;;7.18;2.78;;;7.90;99.90;;;;;;4998136;28;90588;-34
2023/05/16 02:15:26;;;;;;;6.43;2.17;;;8.10;99.90;;;;;;4998126;28;89377;-36
2023/05/16 02:17:52;;;;;;;7.75;2.45;;;8.00;99.90;;;;;;4998416;28;90458;-31
2023/05/16 02:20:17;;;;;;;8.93;2.67;;;7.90;99.90;;;;;;4997942;28;90628;-31
2023/05/16 02:22:45;;;;;;;6.20;3.05;;;7.80;99.90;;;;;;5001193;28;91056;-31
2023/05/16 02:25:11;;;;;;;6.00;2.92;;;7.80;99.90;;;;;;5002501;28;89967;-29
2023/05/16 02:27:37;;;;;;;8.90;3.67;;;7.60;99.90;;;;;;5000569;28;91582;-32
2023/05/16 02:30:04;;;;;;;15.98;3.58;;;7.60;99.90;;;;;;5001277;28;89933;-31
2023/05/16 02:32:30;;;;;;;6.65;3.20;;;7.60;99.90;;;;;;4999482;28;89806;-31
2023/05/16 02:34:56;;;;;;;6.57;2.28;;;7.60;99.90;;;;;;5000991;28;88589;-32
2023/05/16 02:37:21;;;;;;;9.30;2.90;;;7.60;99.90;;;;;;5000512;28;90039;-32
2023/05/16 02:39:47;;;;;;;4.90;2.25;;;7.50;99.90;;;;;;5000887;28;88955;-32
2023/05/16 02:42:13;;;;;;;9.75;2.78;;;7.50;99.90;;;;;;4999753;28;90399;-33
2023/05/16 02:44:38;;;;;;;3.80;2.45;;;7.50;99.90;;;;;;4999823;28;88499;-32
2023/05/16 02:47:04;;;;;;;12.35;3.85;;;7.50;99.90;;;;;;4999294;28;90103;-32
2023/05/16 02:49:30;;;;;;;7.35;2.70;;;7.40;99.90;;;;;;4990703;28;89232;-31
2023/05/16 02:51:56;;;;;;;11.38;3.20;;;7.40;99.90;;;;;;4996042;28;88756;-32
2023/05/16 02:54:22;;;;;;;7.28;2.55;;;7.40;99.90;;;;;;5000774;28;88830;-31
2023/05/16 02:56:47;;;;;;;6.93;2.10;;;7.40;99.90;;;;;;4984408;28;92046;-33
2023/05/16 02:59:13;;;;;;;4.82;3.42;;;7.30;99.90;;;;;;4980260;28;90455;-33
2023/05/16 03:01:38;;;;;;;6.32;2.58;;;7.30;99.90;;;;;;4981474;28;90835;-31
2023/05/16 03:04:04;;;;;;;5.68;3.08;;;7.30;99.90;;;;;;4981255;28;88766;-32
2023/05/16 03:06:30;;;;;;;5.22;3.15;;;7.30;99.90;;;;;;4980930;28;89781;-32
2023/05/16 03:08:56;;;;;;;7.25;2.53;;;7.30;99.90;;;;;;4978397;28;90151;-31
2023/05/16 03:11:22;;;;;;;9.82;3.42;;;7.30;99.90;;;;;;4982451;28;90919;-34
2023/05/16 03:13:48;;;;;;;6.88;2.22;;;7.20;99.90;;;;;;4981436;28;88529;-31
2023/05/16 03:16:15;;;;;;;9.65;2.42;;;7.20;99.90;;;;;;4981726;28;91411;-31
2023/05/16 03:18:41;;;;;;;4.70;2.78;;;7.20;99.90;;;;;;4982016;28;89602;-31
2023/05/16 03:21:07;;;;;;;7.97;3.72;;;7.20;99.90;;;;;;4993113;28;89348;-33
2023/05/16 03:23:33;;;;;;;5.40;2.63;;;7.20;99.90;;;;;;4980904;28;88853;-32
2023/05/16 03:25:58;;;;;;;9.88;3.30;;;7.30;99.90;;;;;;4980318;28;90749;-31
2023/05/16 03:28:26;;;;;;;4.85;2.25;;;7.30;99.90;;;;;;4988863;28;89800;-34
2023/05/16 03:30:51;;;;;;;9.88;2.50;;;7.30;99.90;;;;;;4999614;28;89757;-31
2023/05/16 03:33:18;;;;;;;6.95;1.92;;;7.30;99.90;;;;;;4999306;28;89644;-33
2023/05/16 03:35:44;;;;;;;9.82;3.78;;;7.40;99.90;;;;;;4998916;28;90561;-33
2023/05/16 03:38:10;;;;;;;6.72;3.03;;;7.40;99.90;;;;;;4999949;28;89626;-31
2023/05/16 03:40:36;;;;;;;9.02;1.58;;;7.50;99.90;;;;;;4999501;28;89288;-33
2023/05/16 03:43:02;;;;;;;9.40;2.72;;;7.50;99.90;;;;;;4988883;28;89280;-32
2023/05/16 03:45:29;;;;;;;9.20;3.25;;;7.50;99.90;;;;;;4980058;28;90493;-31
2023/05/16 03:47:55;;;;;;;6.35;2.42;;;7.50;99.90;;;;;;4988981;28;89164;-33
2023/05/16 03:50:21;;;;;;;10.25;3.03;;;7.50;99.90;;;;;;4995203;28;90292;-35
2023/05/16 03:52:46;;;;;;;4.40;2.42;;;7.50;99.90;;;;;;4980846;28;89517;-30
2023/05/16 03:55:13;;;;;;;6.53;2.15;;;7.50;99.90;;;;;;4991931;28;90390;-31
2023/05/16 03:57:41;;;;;;;6.00;2.08;;;7.50;99.90;;;;;;4980111;28;90593;-34
2023/05/16 04:00:07;;;;;;;6.60;3.47;;;7.50;99.90;;;;;;4983175;28;90976;-34
2023/05/16 04:02:33;;;;;;;8.63;2.70;;;7.50;99.90;;;;;;4999539;28;89475;-35
2023/05/16 04:04:59;;;;;;;5.65;2.60;;;7.60;99.90;;;;;;4982965;28;90114;-33
2023/05/16 04:07:24;;;;;;;8.80;3.42;;;7.60;99.90;;;;;;4990028;28;90232;-30
2023/05/16 04:09:50;;;;;;;4.93;2.08;;;7.70;99.90;;;;;;4982142;28;89407;-32
2023/05/16 04:12:16;;;;;;;13.18;3.50;;;7.70;99.90;;;;;;4980357;28;89673;-31
2023/05/16 04:14:42;;;;;;;3.42;2.92;;;7.70;99.90;;;;;;5026026;22;89766;-32
2023/05/16 04:17:08;;;;;;;6.20;3.00;;;7.80;99.90;;;;;;4988769;28;89414;-34
2023/05/16 04:19:33;;;;;;;2.55;2.35;;;7.80;99.90;;;;;;4982903;28;89951;-34
2023/05/16 04:21:59;;;;;;;8.50;3.00;;;7.70;99.90;;;;;;4989000;28;89772;-35
2023/05/16 04:24:27;;;;;;;5.10;3.25;;;7.80;99.90;;;;;;4993180;28;89481;-30
2023/05/16 04:26:53;;;;;;;;;;;7.80;99.90;;;;;;4980716;28;89729;-34
2023/05/16 04:29:18;;;;;;;5.65;2.47;;;7.80;99.90;;;;;;4982856;28;88895;-33
2023/05/16 04:31:44;;;;;;;7.13;3.20;;;7.90;99.90;;;;;;4992135;28;88930;-30
2023/05/16 04:34:11;;;;;;;5.72;3.40;;;7.90;99.90;;;;;;4992772;28;90776;-31
2023/05/16 04:36:37;;;;;;;4.05;2.08;;;8.00;99.90;;;;;;4980328;28;89367;-36
2023/05/16 04:39:03;;;;;;;11.55;2.92;;;8.10;99.90;;;;;;4980860;28;91071;-31
2023/05/16 04:41:29;;;;;;;11.73;3.63;;;8.30;99.90;;;;;;4980030;28;87967;-31
2023/05/16 04:43:54;;;;;;;7.97;3.13;;;8.40;99.90;;;;;;4979889;28;89850;-30
2023/05/16 04:46:20;;;;;;;7.18;2.15;;;8.60;99.90;;;;;;4978202;28;90744;-32
2023/05/16 04:48:46;;;;;;;9.35;2.42;;;8.60;99.90;;;;;;5007890;28;89875;-34
2023/05/16 04:51:12;;;;;;;7.18;2.10;;;8.80;99.90;;;;;;4998957;28;90206;-31
2023/05/16 04:53:37;;;;;;;7.70;3.00;;;9.00;99.90;;;;;;4998917;28;89933;-32
2023/05/16 04:56:04;;;;;;;12.73;3.00;;;9.10;99.90;;;;;;5019544;28;90096;-34
2023/05/16 04:58:30;;;;;;;7.07;2.58;;;9.10;99.90;;;;;;4985138;27;91056;-33
2023/05/16 05:00:56;;;;;;;11.77;2.78;;;9.20;99.90;;;;;;4979353;28;89875;-31
2023/05/16 05:03:22;;;;;;;3.40;2.30;;;9.40;99.90;;;;;;4979719;28;89894;-29
2023/05/16 05:05:48;;;;;;;7.03;3.08;;;9.50;99.90;;;;;;4979414;28;89933;-32
2023/05/16 05:08:14;;;;;;;12.73;4.30;;;9.60;99.90;;;;;;4998264;28;89958;-33
2023/05/16 05:10:39;;;;;;;5.15;2.80;;;9.70;99.90;;;;;;5015532;27;89717;-32
2023/05/16 05:13:05;;;;;;;12.10;3.08;;;9.70;99.90;;;;;;5011563;28;91648;-34
2023/05/16 05:15:31;;;;;;;8.02;3.22;;;9.90;99.90;;;;;;5016347;28;90014;-31
2023/05/16 05:17:56;;;;;;;3.10;2.38;;;10.00;99.90;;;;;;5009751;28;89030;-31
2023/05/16 05:20:22;;;;;;;8.73;3.38;;;10.20;99.90;;;;;;4998717;28;87689;-32
2023/05/16 05:22:48;;;;;;;10.73;3.10;;;10.50;99.90;;;;;;4981204;28;88795;-34
2023/05/16 05:25:14;;;;;;;4.25;2.92;;;10.50;99.90;;;;;;4978900;28;89197;-32
2023/05/16 05:27:39;;;;;;;3.10;2.15;;;10.70;99.90;;;;;;4983110;28;89589;-31
2023/05/16 05:30:06;;;;;;;8.60;3.67;;;10.60;99.90;;;;;;5008955;28;88230;-34
2023/05/16 05:32:31;;;;;;;15.27;2.35;;;10.70;99.90;;;;;;5003526;27;90243;-31
2023/05/16 05:34:57;;;;;;;9.13;3.05;;;10.90;99.90;;;;;;5006026;28;90756;-33
2023/05/16 05:37:23;;;;;;;6.28;3.47;;;10.90;99.90;;;;;;4997917;28;90640;-34
2023/05/16 05:39:48;;;;;;;7.97;2.28;;;11.00;99.90;;;;;;4998121;28;89755;-31
2023/05/16 05:42:14;;;;;;;5.05;2.80;;;11.10;99.90;;;;;;4996074;28;89834;-35
2023/05/16 05:44:40;;;;;;;2.83;1.90;;;11.20;99.90;;;;;;4998846;28;89835;-31
2023/05/16 05:47:06;;;;;;;8.93;2.70;;;11.20;99.90;;;;;;4984158;28;90086;-30
2023/05/16 05:49:32;;;;;;;2.80;1.83;;;11.30;99.90;;;;;;5014945;28;88628;-33
2023/05/16 05:51:58;;;;;;;5.28;3.05;;;11.50;99.90;;;;;;5001299;27;90275;-34
2023/05/16 05:54:24;;;;;;;5.07;2.42;;;11.50;99.90;;;;;;4996084;28;90307;-36
2023/05/16 05:56:49;;;;;;;8.30;2.45;;;11.60;99.90;;;;;;4988601;28;90051;-31
2023/05/16 05:59:15;;;;;;;6.93;2.55;;;11.70;99.90;;;;;;5001205;28;90290;-33
2023/05/16 06:01:42;;;;;;;9.18;3.28;;;11.80;99.90;;;;;;5001182;27;90028;-34
2023/05/16 06:04:08;;;;;;;3.88;2.30;;;11.70;99.90;;;;;;4993553;28;90825;-32
2023/05/16 06:06:34;;;;;;;13.52;3.13;;;11.70;99.90;;;;;;4991896;28;89572;-31
2023/05/16 06:08:59;;;;;;;6.18;2.40;;;11.80;99.90;;;;;;4985541;28;87648;-32
2023/05/16 06:11:25;;;;;;;8.05;2.58;;;11.90;99.90;;;;;;4994403;28;90073;-35
2023/05/16 06:13:51;;;;;;;7.85;3.03;;;12.10;99.90;;;;;;5000547;28;89834;-35
2023/05/16 06:16:17;;;;;;;5.70;2.35;;;12.40;99.90;;;;;;4992043;27;89719;-32
2023/05/16 06:18:43;;;;;;;7.10;2.83;;;12.60;99.90;;;;;;4996064;28;89110;-36
2023/05/16 06:21:08;;;;;;;8.05;3.70;;;12.70;99.90;;;;;;4997161;28;90241;-33
2023/05/16 06:23:35;;;;;;;5.50;2.17;;;12.90;99.90;;;;;;5015001;28;91028;-33
2023/05/16 06:26:01;;;;;;;2.20;1.98;;;12.90;99.90;;;;;;5001240;28;90020;-35
2023/05/16 06:28:27;;;;;;;7.32;2.55;;;13.00;99.90;;;;;;4995017;27;88979;-32
2023/05/16 06:30:53;;;;;;;6.57;2.15;;;13.20;99.90;;;;;;4973997;28;91758;-32
2023/05/16 06:33:19;;;;;;;5.88;2.22;;;13.40;99.90;;;;;;4976661;28;89993;-35
2023/05/16 06:35:45;;;;;;;3.00;2.05;;;13.40;99.90;;;;;;4975938;28;89660;-34
2023/05/16 06:38:10;;;;;;;7.72;2.58;;;13.60;99.90;;;;;;4975972;28;89517;-32
2023/05/16 06:40:36;;;;;;;6.80;2.67;;;13.70;99.90;;;;;;4976589;28;90190;-31
2023/05/16 06:43:02;;;;;;;7.25;2.17;;;14.00;99.90;;;;;;4977173;28;90041;-33
2023/05/16 06:45:27;;;;;;;7.25;2.55;;;13.70;99.90;;;;;;4984058;28;89132;-32
2023/05/16 06:47:54;;;;;;;8.65;2.25;;;13.80;99.90;;;;;;5004158;28;90340;-34
2023/05/16 06:50:20;;;;;;;7.97;2.03;;;13.60;99.90;;;;;;5016012;27;90125;-30
2023/05/16 06:52:45;;;;;;;6.25;2.45;;;13.80;99.90;;;;;;4990070;28;89173;-32
2023/05/16 06:55:11;;;;;;;11.00;2.25;;;13.80;99.90;;;;;;4978822;28;89379;-31
2023/05/16 06:57:37;;;;;;;9.65;2.28;;;13.80;99.90;;;;;;4989426;28;89922;-32
2023/05/16 07:00:03;;;;;;;7.22;2.25;;;13.20;99.90;;;;;;4999155;28;89368;-33
2023/05/16 07:02:28;;;;;;;5.45;1.80;;;13.00;99.90;;;;;;4999737;27;90608;-34
2023/05/16 07:04:54;;;;;;;11.35;2.80;;;13.10;99.90;;;;;;4983448;28;90073;-31
2023/05/16 07:07:20;;;;;;;6.22;2.25;;;13.30;99.90;;;;;;4980618;28;88280;-31
2023/05/16 07:09:45;;;;;;;5.18;2.05;;;13.30;99.90;;;;;;4984554;28;90604;-31
2023/05/16 07:12:11;;;;;;;5.85;2.22;;;13.30;99.90;;;;;;4989830;28;90695;-32
2023/05/16 07:14:37;;;;;;;8.45;3.08;;;13.30;99.90;;;;;;4985273;28;90812;-34
2023/05/16 07:17:03;;;;;;;4.80;2.22;;;13.60;99.90;;;;;;4980599;28;90154;-33
2023/05/16 07:19:28;;;;;;;6.38;2.53;;;14.00;99.90;;;;;;4994694;28;89856;-31
2023/05/16 07:21:54;;;;;;;8.93;2.17;;;14.10;99.90;;;;;;4999173;28;89462;-32
2023/05/16 07:24:20;;;;;;;5.65;1.88;;;14.30;99.90;;;;;;5010337;28;89766;-31
2023/05/16 07:26:45;;;;;;;6.47;2.22;;;14.70;99.90;;;;;;4998606;28;89134;-34
2023/05/16 07:29:11;;;;;;;4.13;1.77;;;14.80;99.90;;;;;;5000758;28;90708;-31
2023/05/16 07:31:36;;;;;;;4.80;1.80;;;14.60;99.90;;;;;;5008742;28;89120;-31
2023/05/16 07:34:02;;;;;;;4.95;1.55;;;14.50;99.90;;;;;;4997510;28;89165;-30
2023/05/16 07:36:28;;;;;;;3.67;2.05;;;14.10;99.90;;;;;;5007320;28;88905;-32
2023/05/16 07:38:53;;;;;;;1.10;1.00;;;14.40;99.90;;;;;;4999493;28;90376;-33
2023/05/16 07:41:20;;;;;;;3.58;1.45;;;14.40;89.70;;;;;;5007779;28;90382;-31
2023/05/16 07:43:46;;;;;;;4.60;1.40;;;14.30;92.00;;;;;;5004854;27;90210;-32
2023/05/16 07:46:11;;;;;;;4.13;1.13;;;14.50;96.40;;;;;;5018048;28;88238;-33
2023/05/16 07:48:37;;;;;;;1.70;0.82;;;14.70;93.50;;;;;;5013874;28;90418;-35
2023/05/16 07:51:02;;;;;;;7.28;1.10;;;15.00;86.60;;;;;;4995444;28;89752;-31
2023/05/16 07:53:28;;;;;;;10.40;1.85;;;15.40;82.20;;;;;;4988069;28;89536;-31
2023/05/16 07:55:54;;;;;;;3.28;1.73;;;15.50;83.20;;;;;;4999200;28;88882;-31
2023/05/16 07:58:20;;;;;;;6.57;1.85;;;15.70;81.30;;;;;;5010319;28;90274;-35
2023/05/16 08:00:46;;;;;;;2.10;1.40;;;15.40;86.70;;;;;;4996931;28;90592;-32
2023/05/16 08:03:12;;;;;;;5.78;1.55;;;15.00;83.00;;;;;;4996688;28;90639;-32
2023/05/16 08:05:38;;;;;;;3.70;1.55;;;15.20;84.10;;;;;;5007454;28;88594;-34
2023/05/16 08:08:04;;;;;;;7.78;1.88;;;15.10;73.10;;;;;;5000372;28;90269;-32
2023/05/16 08:10:30;;;;;;;5.65;1.52;;;15.10;77.60;;;;;;5005631;28;89481;-33
2023/05/16 08:12:56;;;;;;;4.75;2.13;;;15.50;82.20;;;;;;4999208;27;88832;-34
2023/05/16 08:15:21;;;;;;;4.18;1.75;;;15.50;75.10;;;;;;4998123;28;89754;-31
2023/05/16 08:17:47;;;;;;;12.05;2.17;;;15.40;77.20;;;;;;5008720;28;90892;-30
2023/05/16 08:20:12;;;;;;;2.58;1.23;;;15.10;80.00;;;;;;4990589;28;89635;-34
2023/05/16 08:22:38;;;;;;;5.97;1.40;;;14.80;81.50;;;;;;4981362;28;89112;-34
2023/05/16 08:25:04;;;;;;;3.13;1.52;;;14.60;81.70;;;;;;4986746;28;90027;-31
2023/05/16 08:27:30;;;;;;;4.18;1.70;;;14.50;79.60;;;;;;4980901;28;90114;-30
2023/05/16 08:29:56;;;;;;;4.85;1.48;;;14.60;82.70;;;;;;4977345;28;89713;-31
2023/05/16 08:32:22;;;;;;;4.25;1.95;;;15.00;99.90;;;;;;4978098;28;89455;-30
2023/05/16 08:34:47;;;;;;;5.95;1.63;;;15.30;83.60;;;;;;4980435;28;88285;-34
2023/05/16 08:37:13;;;;;;;4.00;1.70;;;15.70;81.00;;;;;;4979842;28;90344;-34
2023/05/16 08:39:39;;;;;;;7.82;2.28;;;15.90;79.90;;;;;;4979942;28;90056;-31
2023/05/16 08:42:05;;;;;;;3.80;1.70;;;15.90;78.90;;;;;;4981460;28;89041;-35
2023/05/16 08:44:31;;;;;;;5.13;1.55;;;16.10;76.40;;;;;;4979147;28;87558;-34
2023/05/16 08:47:06;;;;;;;4.85;1.35;;;15.90;79.00;;;;;;4982273;28;90392;-33
2023/05/16 08:49:33;;;;;;;6.50;1.70;;;15.90;76.90;;;;;;5007414;28;90121;-35
2023/05/16 08:52:01;;;;;;;2.13;1.27;;;15.80;77.10;;;;;;5012432;28;90590;-34
2023/05/16 08:54:27;;;;;;;3.35;1.02;;;15.80;68.70;;;;;;4997931;27;90022;-35
2023/05/16 08:56:53;;;;;;;4.75;1.63;;;15.90;68.80;;;;;;4977319;28;89998;-32
2023/05/16 08:59:20;;;;;;;3.45;1.60;;;16.20;70.50;;;;;;4976758;28;89641;-34
2023/05/16 09:01:46;;;;;;;8.50;2.20;;;16.40;66.10;;;;;;4976645;28;90463;-34
2023/05/16 09:04:11;;;;;;;4.40;1.35;;;15.90;66.10;;;;;;4977352;28;89275;-35
2023/05/16 09:06:37;;;;;;;3.70;1.35;;;15.80;70.30;;;;;;4975139;28;91510;-33
2023/05/16 09:09:06;;;;;;;3.78;1.60;;;15.90;72.80;;;;;;4977122;28;90195;-33
2023/05/16 09:11:32;;;;;;;3.50;1.40;;;15.60;70.80;;;;;;4976180;28;89573;-34
2023/05/16 09:13:57;;;;;;;5.50;1.30;;;15.60;70.70;;;;;;4996512;28;89387;-34
2023/05/16 09:16:23;;;;;;;3.10;1.38;;;15.10;73.80;;;;;;4997336;28;90779;-31
2023/05/16 09:19:00;;;;;;;3.05;1.05;;;15.00;74.70;;;;;;5003831;28;90208;-33
2023/05/16 09:21:33;;;;;;;5.72;1.48;;;15.00;75.80;;;;;;5001478;28;90360;-30
2023/05/16 09:24:07;;;;;;;4.88;1.50;;;14.70;71.70;;;;;;5003609;27;88627;-31
2023/05/16 09:26:33;;;;;;;11.88;1.58;;;14.50;75.40;;;;;;4976620;28;88534;-31
2023/05/16 09:28:58;;;;;;;2.80;1.20;;;14.10;80.70;;;;;;4991735;28;89205;-35
2023/05/16 09:31:36;;;;;;;3.10;1.30;;;13.70;84.80;;;;;;5008708;28;89619;-30
2023/05/16 09:34:03;;;;;;;1.17;1.07;;;14.10;91.40;;;;;;5012914;28;87988;-32
2023/05/16 09:36:31;;;;;;;4.47;1.95;;;14.50;99.90;;;;;;5005746;27;90796;-34
2023/05/16 09:38:56;;;;;;;6.88;2.35;;;14.80;96.70;;;;;;5007091;28;91083;-34
2023/05/16 09:41:22;;;;;;;1.67;1.40;;;15.30;92.20;;;;;;4996013;28;90889;-33
2023/05/16 09:43:48;;;;;;;2.65;1.40;;;15.40;83.70;;;;;;4996456;28;88986;-34
2023/05/16 09:46:14;;;;;;;5.18;2.25;;;15.60;81.20;;;;;;5007341;28;90855;-34
2023/05/16 09:48:43;;;;;;;1.60;1.35;;;15.80;79.40;;;;;;5010808;27;89567;-32
2023/05/16 09:51:11;;;;;;;2.05;1.63;;;15.80;77.70;;;;;;4986667;28;89525;-32
2023/05/16 09:53:37;;;;;;;2.77;1.17;;;16.10;73.10;;;;;;4989736;28;89760;-34
2023/05/16 09:56:07;;;;;;;2.80;1.42;;;15.70;71.80;;;;;;4987016;28;90037;-33
2023/05/16 09:58:34;;;;;;;1.75;1.33;;;16.00;74.10;;;;;;4979168;28;89687;-32
2023/05/16 10:01:01;;;;;;;2.57;1.30;;;16.00;67.20;;;;;;4976455;28;89642;-33
2023/05/16 10:03:27;;;;;;;5.10;2.03;;;15.80;66.90;;;;;;4976492;28;90195;-32
2023/05/16 10:05:54;;;;;;;3.75;1.63;;;15.70;69.30;;;;;;4977128;28;89816;-35
2023/05/16 10:08:25;;;;;;;6.70;1.80;;;15.50;70.80;;;;;;4982144;28;91139;-31
2023/05/16 10:10:55;;;;;;;5.70;1.33;;;15.20;68.50;;;;;;4991539;28;90219;-31
2023/05/16 10:13:27;;;;;;;6.50;2.08;;;15.40;70.50;;;;;;4978202;28;89072;-32
2023/05/16 10:15:55;;;;;;;5.78;1.20;;;15.70;69.30;;;;;;4990547;28;90628;-35
2023/05/16 10:18:22;;;;;;;5.00;1.73;;;16.00;71.00;;;;;;4979472;28;89656;-32
2023/05/16 10:20:52;;;;;;;4.63;1.67;;;16.20;70.40;;;;;;4994645;28;89752;-34
2023/05/16 10:23:19;;;;;;;6.40;1.50;;;16.20;65.90;;;;;;4995061;28;88417;-32
2023/05/16 10:25:46;;;;;;;5.07;1.27;;;15.70;67.70;;;;;;5004866;28;89900;-32
2023/05/16 10:28:13;;;;;;;7.47;1.38;;;15.60;67.90;;;;;;4998334;28;90723;-34
2023/05/16 10:30:42;;;;;;;3.75;2.13;;;15.60;69.30;;;;;;4999026;28;89811;-30
2023/05/16 10:33:11;;;;;;;3.67;1.35;;;15.60;69.10;;;;;;5001808;27;87997;-35
2023/05/16 10:35:37;;;;;;;3.33;1.02;;;15.70;68.20;;;;;;4993391;28;91288;-32
2023/05/16 10:38:04;;;;;;;3.83;1.90;;;15.80;67.20;;;;;;4979617;28;90659;-31
2023/05/16 10:40:30;;;;;;;3.55;1.88;;;16.10;71.10;;;;;;4978630;28;89292;-35
2023/05/16 10:43:00;;;;;;;6.68;1.98;;;15.90;68.30;;;;;;4981480;28;88854;-32
2023/05/16 10:45:27;;;;;;;3.17;1.27;;;16.00;70.50;;;;;;4981024;28;89893;-32
2023/05/16 10:48:03;;;;;;;8.30;2.03;;;15.80;70.40;;;;;;4998509;28;89921;-33
2023/05/16 10:50:38;;;;;;;14.43;2.45;;;15.40;70.90;;;;;;4997689;27;88912;-34
2023/05/16 10:53:28;;;;;;;6.40;1.83;;;15.50;71.10;;;;;;4979410;28;90566;-30
2023/05/16 10:56:00;;;;;;;5.32;1.73;;;15.40;69.10;;;;;;4979786;28;89783;-34
2023/05/16 10:58:33;;;;;;;1.92;1.33;;;15.70;71.10;;;;;;4979747;28;89607;-32
2023/05/16 11:01:19;;;;;;;5.35;1.00;;;15.90;69.40;;;;;;4989236;28;89815;-32
2023/05/16 11:04:07;;;;;;;3.53;1.38;;;15.90;68.60;;;;;;4992753;28;88665;-34
2023/05/16 11:06:39;;;;;;;3.92;1.38;;;16.00;69.70;;;;;;5010660;27;88975;-36
2023/05/16 11:09:05;;;;;;;5.57;1.38;;;15.80;70.50;;;;;;4978402;28;89653;-36
2023/05/16 11:11:46;;;;;;;3.03;1.08;;;15.60;69.70;;;;;;4997859;28;89319;-33
2023/05/16 11:14:22;;;;;;;3.25;1.63;;;16.00;71.60;;;;;;4987930;28;89506;-32
2023/05/16 11:17:14;;;;;;;2.55;1.55;;;16.00;68.80;;;;;;4994479;28;89694;-34
2023/05/16 11:19:43;;;;;;;4.05;1.35;;;15.70;70.90;;;;;;4985554;28;90786;-33
2023/05/16 11:22:18;;;;;;;5.05;1.80;;;15.40;71.90;;;;;;4992839;28;90447;-35
2023/05/16 11:25:01;;;;;;;3.78;1.60;;;14.80;72.00;;;;;;4981117;28;89262;-31
2023/05/16 11:27:35;;;;;;;7.28;2.53;;;14.80;77.20;;;;;;4980286;28;90289;-32
2023/05/16 11:30:10;;;;;;;4.18;1.67;;;15.00;82.60;;;;;;4979538;28;90070;-34
2023/05/16 11:32:39;;;;;;;2.42;1.48;;;15.10;72.50;;;;;;5014318;28;89407;-32
2023/05/16 11:35:07;;;;;;;6.18;1.20;;;15.10;73.10;;;;;;5008909;28;88644;-30
2023/05/16 11:37:35;;;;;;;3.17;1.30;;;14.90;72.10;;;;;;5015849;28;89863;-34
2023/05/16 11:40:08;;;;;;;1.67;0.97;;;14.70;72.40;;;;;;5019940;27;89947;-32
2023/05/16 11:42:35;;;;;;;7.90;1.60;;;14.50;74.50;;;;;;4999255;28;90167;-30
2023/05/16 11:45:08;;;;;;;6.30;1.30;;;14.50;74.20;;;;;;4996034;28;90529;-33
2023/05/16 11:47:37;;;;;;;2.78;1.30;;;14.60;78.00;;;;;;5005120;28;90854;-35
2023/05/16 11:50:06;;;;;;;5.60;1.42;;;15.00;77.30;;;;;;5019724;27;89818;-35
2023/05/16 11:52:32;;;;;;;2.85;1.73;;;15.20;72.00;;;;;;4987252;28;89070;-32
2023/05/16 11:55:00;;;;;;;4.22;2.42;;;15.30;72.40;;;;;;5013107;28;88945;-33
2023/05/16 11:57:26;;;;;;;1.92;1.50;;;15.40;70.10;;;;;;5000097;28;89809;-31
2023/05/16 11:59:52;;;;;;;1.85;1.10;;;15.50;68.70;;;;;;5000544;28;89658;-30
2023/05/16 12:02:17;;;;;;;4.50;1.17;;;15.40;71.00;;;;;;5008523;28;89779;-35
2023/05/16 12:04:49;;;;;;;9.55;1.98;;;15.20;70.70;;;;;;5012575;28;89572;-36
2023/05/16 12:07:14;;;;;;;2.10;1.42;;;15.30;74.30;;;;;;5018990;28;91034;-31
2023/05/16 12:09:40;;;;;;;9.38;2.85;;;15.30;71.00;;;;;;5006007;27;90842;-32
2023/05/16 12:12:06;;;;;;;2.40;1.50;;;15.20;69.20;;;;;;4981215;28;88957;-35
2023/05/16 12:14:32;;;;;;;4.03;1.80;;;15.00;69.50;;;;;;4999257;28;89195;-31
2023/05/16 12:16:58;;;;;;;3.20;2.03;;;14.80;70.10;;;;;;4988567;28;90919;-31
2023/05/16 12:19:24;;;;;;;3.38;2.25;;;14.70;72.00;;;;;;4979900;28;89664;-33
2023/05/16 12:21:53;;;;;;;4.97;2.70;;;14.60;71.60;;;;;;4992466;28;89063;-30
2023/05/16 12:24:20;;;;;;;4.57;2.88;;;14.60;72.50;;;;;;4988664;28;88360;-32
2023/05/16 12:26:45;;;;;;;6.57;2.75;;;14.80;71.90;;;;;;5016498;28;89204;-32
2023/05/16 12:29:12;;;;;;;7.03;2.60;;;14.70;66.60;;;;;;5008437;28;89274;-31
2023/05/16 12:31:40;;;;;;;3.67;2.17;;;14.80;69.30;;;;;;5015721;28;88960;-34
2023/05/16 12:34:17;;;;;;;6.03;2.45;;;15.00;71.10;;;;;;4989456;28;88108;-36
2023/05/16 12:36:43;;;;;;;9.85;3.20;;;15.00;70.90;;;;;;4987376;28;90009;-34
2023/05/16 12:39:11;;;;;;;4.00;2.22;;;15.20;71.10;;;;;;4978535;28;90272;-32
2023/05/16 12:41:43;;;;;;;4.93;2.63;;;15.30;70.80;;;;;;5002909;28;89636;-32
2023/05/16 12:44:18;;;;;;;3.58;2.25;;;15.20;72.50;;;;;;4998605;28;88523;-33
2023/05/16 12:46:51;;;;;;;5.13;2.50;;;15.10;72.10;;;;;;4996934;28;89947;-33
2023/05/16 12:49:20;;;;;;;4.15;2.35;;;14.90;73.20;;;;;;4985775;28;88787;-32
2023/05/16 12:51:51;;;;;;;4.93;2.53;;;14.80;74.60;;;;;;4999082;28;88896;-33
2023/05/16 12:54:17;;;;;;;7.32;2.70;;;14.80;75.10;;;;;;5010790;27;89373;-34
2023/05/16 12:56:43;;;;;;;7.90;3.22;;;14.90;74.80;;;;;;4999583;28;90354;-32